Time;durP1;ratioP1;P1;durP2;ratioP2;P2;SDS_P1;SDS_P2;PMS_P1;PMS_P2;Temp;Humidity;BMP_temperature;BMP_pressure;BME280_temperature;BME280_humidity;BME280_pressure;Samples;Min_cycle;Max_cycle;Signal;HPM_P1;HPM_P2
2023/08/23 00:01:48;;;;;;;11.48;7.53;;;;;;;;;;5057214;28;20094;-63
2023/08/23 00:04:14;;;;;;;13.32;9.35;;;;;;;;;;5053337;28;20102;-63
2023/08/23 00:06:40;;;;;;;8.80;6.35;;;;;;;;;;5056797;28;20036;-63
2023/08/23 00:09:06;;;;;;;9.80;6.18;;;;;;;;;;5057795;28;20028;-63
2023/08/23 00:11:32;;;;;;;9.57;6.45;;;;;;;;;;5057731;28;20043;-63
2023/08/23 00:13:58;;;;;;;8.82;7.00;;;;;;;;;;5056552;28;20028;-63
2023/08/23 00:16:25;;;;;;;6.32;4.32;;;;;;;;;;5056247;28;20047;-63
2023/08/23 00:18:51;;;;;;;5.07;2.35;;;;;;;;;;5056188;28;20032;-63
2023/08/23 00:21:17;;;;;;;5.40;2.40;;;;;;;;;;5057543;28;20028;-63
2023/08/23 00:23:43;;;;;;;2.80;1.67;;;;;;;;;;5057451;28;20028;-63
2023/08/23 00:26:11;;;;;;;4.82;2.38;;;;;;;;;;5056887;28;20032;-63
2023/08/23 00:28:37;;;;;;;4.95;3.00;;;;;;;;;;5057160;28;20027;-63
2023/08/23 00:31:03;;;;;;;4.85;2.85;;;;;;;;;;5057096;28;20027;-63
2023/08/23 00:33:29;;;;;;;5.43;3.25;;;;;;;;;;5054819;28;20141;-63
2023/08/23 00:35:55;;;;;;;7.30;4.78;;;;;;;;;;5055229;28;20043;-63
2023/08/23 00:38:21;;;;;;;7.28;5.13;;;;;;;;;;5057336;28;20047;-63
2023/08/23 00:40:47;;;;;;;7.80;5.25;;;;;;;;;;5057012;28;20051;-63
2023/08/23 00:43:13;;;;;;;9.60;7.15;;;;;;;;;;5057110;28;20086;-63
2023/08/23 00:45:40;;;;;;;9.82;6.88;;;;;;;;;;5054275;28;20024;-63
2023/08/23 00:48:07;;;;;;;9.68;7.18;;;;;;;;;;5054592;28;20609;-63
2023/08/23 00:50:33;;;;;;;9.98;7.68;;;;;;;;;;5054592;28;20082;-63
2023/08/23 00:52:59;;;;;;;10.30;8.32;;;;;;;;;;5056352;28;20123;-63
2023/08/23 00:55:26;;;;;;;19.58;10.20;;;;;;;;;;5055020;28;20109;-63
2023/08/23 00:57:52;;;;;;;17.48;14.48;;;;;;;;;;5051138;28;20472;-63
2023/08/23 01:00:19;;;;;;;28.98;23.90;;;;;;;;;;5056571;28;20161;-63
2023/08/23 01:02:45;;;;;;;26.05;22.65;;;;;;;;;;5056141;28;20442;-63
2023/08/23 01:05:12;;;;;;;22.63;17.50;;;;;;;;;;5055856;28;20032;-63
2023/08/23 01:07:43;;;;;;;12.02;8.77;;;;;;;;;;5057138;28;20051;-63
2023/08/23 01:10:13;;;;;;;7.78;5.88;;;;;;;;;;5060521;28;20028;-63
2023/08/23 01:13:00;;;;;;;8.70;5.18;;;;;;;;;;5058144;28;20024;-63
2023/08/23 01:15:27;;;;;;;9.38;5.30;;;;;;;;;;5058321;28;20048;-63
2023/08/23 01:17:53;;;;;;;8.20;5.78;;;;;;;;;;5059648;28;20905;-63
2023/08/23 01:20:20;;;;;;;11.13;6.30;;;;;;;;;;5059859;28;20498;-63
2023/08/23 01:22:51;;;;;;;8.15;6.32;;;;;;;;;;5057664;28;20035;-63
2023/08/23 01:25:18;;;;;;;11.85;7.85;;;;;;;;;;5058461;28;20071;-63
2023/08/23 01:27:44;;;;;;;9.80;7.65;;;;;;;;;;5058756;28;20024;-63
2023/08/23 01:30:11;;;;;;;13.00;8.15;;;;;;;;;;5058457;28;20502;-63
2023/08/23 01:32:49;;;;;;;11.45;8.25;;;;;;;;;;5060437;28;20036;-63
2023/08/23 01:35:27;;;;;;;10.98;8.48;;;;;;;;;;5058842;28;20387;-63
2023/08/23 01:37:54;;;;;;;11.38;7.30;;;;;;;;;;5058728;28;20038;-63
2023/08/23 01:40:20;;;;;;;10.13;6.20;;;;;;;;;;5058340;28;20039;-63
2023/08/23 01:42:46;;;;;;;6.90;3.40;;;;;;;;;;5058985;28;20032;-63
2023/08/23 01:45:12;;;;;;;18.35;3.10;;;;;;;;;;5059264;28;21731;-63
2023/08/23 01:47:38;;;;;;;6.03;2.45;;;;;;;;;;5058963;28;20055;-63
2023/08/23 01:50:05;;;;;;;27.48;2.90;;;;;;;;;;5057603;28;20016;-63
2023/08/23 01:52:31;;;;;;;8.30;3.10;;;;;;;;;;5058418;28;20918;-62
2023/08/23 01:54:57;;;;;;;5.45;3.35;;;;;;;;;;5059366;28;20097;-63
2023/08/23 01:57:23;;;;;;;8.05;3.63;;;;;;;;;;5059121;28;20032;-63
2023/08/23 01:59:52;;;;;;;6.47;4.00;;;;;;;;;;5057861;28;20059;-63
2023/08/23 02:02:18;;;;;;;9.77;7.18;;;;;;;;;;5059728;28;20476;-63
2023/08/23 02:04:44;;;;;;;13.32;10.20;;;;;;;;;;5058697;28;20684;-62
2023/08/23 02:07:10;;;;;;;12.70;8.55;;;;;;;;;;5056989;28;20116;-62
2023/08/23 02:09:36;;;;;;;11.57;7.28;;;;;;;;;;5056778;28;20036;-62
2023/08/23 02:12:02;;;;;;;10.82;6.43;;;;;;;;;;5060268;28;20059;-62
2023/08/23 02:14:28;;;;;;;9.35;5.63;;;;;;;;;;5059563;28;20063;-63
2023/08/23 02:16:54;;;;;;;7.38;4.10;;;;;;;;;;5058074;28;20109;-62
2023/08/23 02:19:20;;;;;;;12.60;4.13;;;;;;;;;;5057708;28;20131;-62
2023/08/23 02:21:46;;;;;;;111.15;6.35;;;;;;;;;;5056193;28;21888;-62
2023/08/23 02:24:12;;;;;;;25.50;3.28;;;;;;;;;;5059282;28;20063;-63
2023/08/23 02:26:38;;;;;;;12.20;2.67;;;;;;;;;;5058921;28;20085;-63
2023/08/23 02:29:04;;;;;;;9.73;3.00;;;;;;;;;;5058851;28;20039;-62
2023/08/23 02:31:30;;;;;;;21.35;3.05;;;;;;;;;;5057790;28;20039;-62
2023/08/23 02:33:57;;;;;;;10.68;2.42;;;;;;;;;;5058035;28;20033;-63
2023/08/23 02:36:23;;;;;;;4.60;2.10;;;;;;;;;;5057917;28;20024;-63
2023/08/23 02:38:49;;;;;;;33.08;3.60;;;;;;;;;;5058973;28;20036;-62
2023/08/23 02:41:15;;;;;;;4.82;2.50;;;;;;;;;;5056932;28;20044;-62
2023/08/23 02:43:41;;;;;;;5.82;2.10;;;;;;;;;;5054527;28;20040;-62
2023/08/23 02:46:07;;;;;;;4.43;2.08;;;;;;;;;;5058280;28;20036;-62
2023/08/23 02:48:33;;;;;;;3.80;1.95;;;;;;;;;;5057590;28;20047;-62
2023/08/23 02:51:00;;;;;;;5.53;2.45;;;;;;;;;;5055987;28;20027;-62
2023/08/23 02:53:26;;;;;;;12.38;2.63;;;;;;;;;;5056480;28;20035;-62
2023/08/23 02:55:52;;;;;;;5.47;2.08;;;;;;;;;;5058097;28;20048;-62
2023/08/23 02:58:18;;;;;;;6.20;2.42;;;;;;;;;;5056998;28;20387;-63
2023/08/23 03:00:44;;;;;;;6.78;2.40;;;;;;;;;;5055026;28;20048;-62
2023/08/23 03:03:10;;;;;;;6.50;2.30;;;;;;;;;;5056251;28;20033;-62
2023/08/23 03:05:36;;;;;;;29.20;3.10;;;;;;;;;;5055991;28;20032;-62
2023/08/23 03:08:02;;;;;;;3.50;2.10;;;;;;;;;;5058602;28;20118;-62
2023/08/23 03:10:28;;;;;;;7.90;2.45;;;;;;;;;;5056493;28;20504;-62
2023/08/23 03:12:54;;;;;;;7.65;2.90;;;;;;;;;;5057876;28;20108;-62
2023/08/23 03:15:20;;;;;;;4.93;2.67;;;;;;;;;;5058513;28;20032;-62
2023/08/23 03:17:46;;;;;;;5.13;2.58;;;;;;;;;;5058139;28;20044;-62
2023/08/23 03:20:12;;;;;;;6.25;3.13;;;;;;;;;;5057171;28;20105;-62
2023/08/23 03:22:38;;;;;;;4.85;3.03;;;;;;;;;;5057240;28;20036;-62
2023/08/23 03:25:05;;;;;;;4.97;3.03;;;;;;;;;;5053726;28;20036;-62
2023/08/23 03:27:31;;;;;;;4.85;3.13;;;;;;;;;;5057112;28;20570;-62
2023/08/23 03:29:57;;;;;;;5.47;3.10;;;;;;;;;;5057208;28;20799;-62
2023/08/23 03:32:23;;;;;;;5.55;3.25;;;;;;;;;;5056291;28;20071;-62
2023/08/23 03:34:50;;;;;;;5.88;3.42;;;;;;;;;;5054566;28;20627;-63
2023/08/23 03:37:16;;;;;;;6.20;3.10;;;;;;;;;;5056237;28;20117;-62
2023/08/23 03:39:42;;;;;;;5.82;3.47;;;;;;;;;;5055267;28;20036;-62
2023/08/23 03:42:08;;;;;;;4.57;2.78;;;;;;;;;;5058140;28;20180;-62
2023/08/23 03:44:34;;;;;;;5.22;3.17;;;;;;;;;;5056689;28;20094;-62
2023/08/23 03:47:00;;;;;;;8.30;3.58;;;;;;;;;;5057052;28;20048;-62
2023/08/23 03:49:26;;;;;;;5.65;3.28;;;;;;;;;;5057836;28;20037;-62
2023/08/23 03:51:52;;;;;;;9.02;4.65;;;;;;;;;;5056403;28;20029;-63
2023/08/23 03:54:21;;;;;;;7.10;4.80;;;;;;;;;;5056983;28;20110;-62
2023/08/23 03:56:47;;;;;;;7.57;5.25;;;;;;;;;;5057847;28;20031;-62
2023/08/23 03:59:13;;;;;;;11.07;5.97;;;;;;;;;;5056873;28;20028;-62
2023/08/23 04:01:39;;;;;;;10.30;5.57;;;;;;;;;;5054613;28;20121;-62
2023/08/23 04:04:05;;;;;;;8.27;5.50;;;;;;;;;;5057074;28;20032;-62
2023/08/23 04:06:31;;;;;;;8.98;5.78;;;;;;;;;;5056201;28;20083;-62
2023/08/23 04:08:57;;;;;;;7.53;5.78;;;;;;;;;;5056772;28;20063;-63
2023/08/23 04:11:23;;;;;;;8.70;5.82;;;;;;;;;;5055036;28;20526;-63
2023/08/23 04:13:49;;;;;;;9.70;5.38;;;;;;;;;;5055901;28;20100;-62
2023/08/23 04:16:15;;;;;;;7.10;5.18;;;;;;;;;;5057453;28;20048;-62
2023/08/23 04:18:41;;;;;;;7.40;5.07;;;;;;;;;;5058400;28;20881;-62
2023/08/23 04:21:07;;;;;;;7.97;5.20;;;;;;;;;;5054820;28;20509;-62
2023/08/23 04:23:33;;;;;;;7.75;4.68;;;;;;;;;;5056138;28;20957;-62
2023/08/23 04:26:00;;;;;;;7.78;5.50;;;;;;;;;;5056635;28;20043;-62
2023/08/23 04:28:26;;;;;;;7.40;5.05;;;;;;;;;;5057218;28;20085;-62
2023/08/23 04:30:52;;;;;;;9.75;6.30;;;;;;;;;;5057042;28;20601;-62
2023/08/23 04:33:20;;;;;;;9.98;6.50;;;;;;;;;;5057116;28;20024;-62
2023/08/23 04:35:46;;;;;;;10.77;6.45;;;;;;;;;;5054611;28;20043;-63
2023/08/23 04:38:15;;;;;;;10.48;5.60;;;;;;;;;;5055751;28;20146;-62
2023/08/23 04:40:41;;;;;;;8.43;5.70;;;;;;;;;;5056048;28;20054;-62
2023/08/23 04:43:07;;;;;;;9.57;6.28;;;;;;;;;;5058252;28;20031;-62
2023/08/23 04:45:36;;;;;;;9.77;6.47;;;;;;;;;;5060086;28;20033;-62
2023/08/23 04:48:02;;;;;;;8.60;6.53;;;;;;;;;;5062195;28;20588;-62
2023/08/23 04:50:29;;;;;;;9.20;6.80;;;;;;;;;;5060220;28;20036;-62
2023/08/23 04:52:55;;;;;;;10.20;7.35;;;;;;;;;;5060085;28;20028;-62
2023/08/23 04:55:21;;;;;;;9.95;6.30;;;;;;;;;;5060600;28;20174;-62
2023/08/23 04:57:47;;;;;;;9.52;6.95;;;;;;;;;;5059218;28;20040;-62
2023/08/23 05:00:13;;;;;;;9.07;6.30;;;;;;;;;;5056869;28;20111;-62
2023/08/23 05:02:40;;;;;;;9.60;7.07;;;;;;;;;;5058719;28;20034;-62
2023/08/23 05:05:06;;;;;;;9.93;7.43;;;;;;;;;;5056396;28;20974;-62
2023/08/23 05:07:35;;;;;;;9.88;6.80;;;;;;;;;;5054093;28;20411;-63
2023/08/23 05:10:01;;;;;;;9.05;6.28;;;;;;;;;;5060335;28;20024;-62
2023/08/23 05:12:27;;;;;;;8.93;6.82;;;;;;;;;;5059583;28;20642;-63
2023/08/23 05:14:53;;;;;;;10.80;8.20;;;;;;;;;;5058686;28;20040;-62
2023/08/23 05:17:19;;;;;;;9.70;7.50;;;;;;;;;;5059586;28;20092;-62
2023/08/23 05:19:45;;;;;;;11.45;8.73;;;;;;;;;;5060760;28;20039;-62
2023/08/23 05:22:11;;;;;;;14.20;10.00;;;;;;;;;;5060025;28;20082;-62
2023/08/23 05:24:37;;;;;;;13.27;9.30;;;;;;;;;;5060989;28;20106;-63
2023/08/23 05:27:03;;;;;;;14.23;9.52;;;;;;;;;;5060790;28;20035;-62
2023/08/23 05:29:29;;;;;;;12.93;9.80;;;;;;;;;;5059456;28;20035;-62
2023/08/23 05:31:55;;;;;;;14.00;10.35;;;;;;;;;;5059233;28;20032;-62
2023/08/23 05:34:21;;;;;;;16.30;9.68;;;;;;;;;;5058669;28;20074;-62
2023/08/23 05:36:47;;;;;;;17.80;10.75;;;;;;;;;;5059594;28;20078;-62
2023/08/23 05:39:13;;;;;;;15.02;9.95;;;;;;;;;;5059318;28;20028;-62
2023/08/23 05:41:39;;;;;;;14.38;10.25;;;;;;;;;;5058996;28;21021;-62
2023/08/23 05:44:05;;;;;;;14.70;10.40;;;;;;;;;;5059358;28;20028;-62
2023/08/23 05:46:32;;;;;;;15.77;11.10;;;;;;;;;;5058078;28;20109;-62
2023/08/23 05:48:58;;;;;;;14.43;10.68;;;;;;;;;;5059168;28;20046;-62
2023/08/23 05:51:24;;;;;;;16.00;11.63;;;;;;;;;;5059147;28;21392;-62
2023/08/23 05:53:50;;;;;;;14.90;11.32;;;;;;;;;;5057439;28;20028;-62
2023/08/23 05:56:16;;;;;;;17.02;11.35;;;;;;;;;;5059743;28;20036;-62
2023/08/23 05:58:42;;;;;;;14.57;10.77;;;;;;;;;;5058362;28;20035;-62
2023/08/23 06:01:08;;;;;;;16.15;11.00;;;;;;;;;;5055074;28;20021;-62
2023/08/23 06:03:34;;;;;;;14.98;10.93;;;;;;;;;;5057288;28;20040;-63
2023/08/23 06:06:00;;;;;;;16.05;11.27;;;;;;;;;;5058269;28;20044;-63
2023/08/23 06:08:26;;;;;;;15.50;11.50;;;;;;;;;;5057725;28;21861;-62
2023/08/23 06:10:53;;;;;;;13.10;9.80;;;;;;;;;;5058189;28;20070;-62
2023/08/23 06:13:19;;;;;;;13.20;9.98;;;;;;;;;;5058282;28;20024;-63
2023/08/23 06:15:45;;;;;;;14.82;11.60;;;;;;;;;;5056326;28;20024;-63
2023/08/23 06:18:11;;;;;;;14.73;11.13;;;;;;;;;;5058893;28;20032;-63
2023/08/23 06:20:38;;;;;;;14.90;10.65;;;;;;;;;;5058490;28;20063;-63
2023/08/23 06:23:07;;;;;;;19.02;12.13;;;;;;;;;;5059037;28;20035;-63
2023/08/23 06:25:33;;;;;;;16.52;11.55;;;;;;;;;;5058168;28;20131;-63
2023/08/23 06:27:59;;;;;;;14.88;10.85;;;;;;;;;;5058097;28;20039;-63
2023/08/23 06:30:25;;;;;;;15.00;12.38;;;;;;;;;;5056918;28;20032;-63
2023/08/23 06:32:54;;;;;;;15.98;11.55;;;;;;;;;;5058071;28;20066;-63
2023/08/23 06:35:21;;;;;;;14.52;10.23;;;;;;;;;;5057104;28;20084;-63
2023/08/23 06:37:47;;;;;;;14.68;12.70;;;;;;;;;;5055920;28;20031;-63
2023/08/23 06:40:14;;;;;;;15.50;11.32;;;;;;;;;;5059149;28;20035;-63
2023/08/23 06:42:40;;;;;;;15.43;12.52;;;;;;;;;;5058385;28;20032;-62
2023/08/23 06:45:08;;;;;;;16.10;12.02;;;;;;;;;;5057210;28;20047;-62
2023/08/23 06:47:34;;;;;;;17.92;12.15;;;;;;;;;;5058582;28;20048;-63
2023/08/23 06:50:00;;;;;;;14.88;11.07;;;;;;;;;;5058765;28;21912;-63
2023/08/23 06:52:26;;;;;;;16.27;12.50;;;;;;;;;;5056956;28;20059;-63
2023/08/23 06:54:52;;;;;;;18.05;12.75;;;;;;;;;;5057151;28;20067;-62
2023/08/23 06:57:20;;;;;;;16.83;13.10;;;;;;;;;;5056694;28;20085;-62
2023/08/23 06:59:46;;;;;;;16.70;12.27;;;;;;;;;;5058376;28;20047;-62
2023/08/23 07:02:12;;;;;;;15.07;12.13;;;;;;;;;;5058611;28;20036;-62
2023/08/23 07:04:38;;;;;;;15.82;12.15;;;;;;;;;;5058394;28;20035;-62
2023/08/23 07:07:04;;;;;;;15.50;12.07;;;;;;;;;;5057268;28;20052;-62
2023/08/23 07:09:31;;;;;;;16.10;12.73;;;;;;;;;;5054803;28;20060;-62
2023/08/23 07:11:57;;;;;;;15.80;12.55;;;;;;;;;;5055445;28;20081;-63
2023/08/23 07:14:23;;;;;;;16.60;12.65;;;;;;;;;;5055445;28;20035;-63
2023/08/23 07:16:49;;;;;;;17.05;13.07;;;;;;;;;;5055911;28;20033;-62
2023/08/23 07:19:15;;;;;;;16.52;13.00;;;;;;;;;;5056380;28;21051;-62
2023/08/23 07:21:41;;;;;;;15.52;12.98;;;;;;;;;;5054598;28;20981;-63
2023/08/23 07:24:07;;;;;;;16.88;11.95;;;;;;;;;;5056128;28;20043;-63
2023/08/23 07:26:33;;;;;;;15.85;12.95;;;;;;;;;;5055161;28;20566;-63
2023/08/23 07:29:00;;;;;;;14.93;12.43;;;;;;;;;;5056955;28;20029;-63
2023/08/23 07:31:26;;;;;;;13.52;11.23;;;;;;;;;;5057063;28;21176;-63
2023/08/23 07:33:52;;;;;;;14.15;10.73;;;;;;;;;;5058436;28;20078;-63
2023/08/23 07:36:18;;;;;;;14.02;10.23;;;;;;;;;;5057895;28;20047;-63
2023/08/23 07:38:44;;;;;;;14.40;10.48;;;;;;;;;;5056861;28;20950;-63
2023/08/23 07:41:10;;;;;;;13.80;10.10;;;;;;;;;;5056619;28;21778;-63
2023/08/23 07:43:37;;;;;;;12.27;9.10;;;;;;;;;;5054998;28;21610;-63
2023/08/23 07:46:03;;;;;;;14.45;9.88;;;;;;;;;;5055765;28;20023;-63
2023/08/23 07:48:29;;;;;;;11.75;8.30;;;;;;;;;;5056700;28;20139;-63
2023/08/23 07:50:56;;;;;;;11.68;8.45;;;;;;;;;;5058425;28;20044;-63
2023/08/23 07:53:23;;;;;;;12.00;9.60;;;;;;;;;;5054857;28;20036;-63
2023/08/23 07:55:49;;;;;;;12.38;9.02;;;;;;;;;;5055006;28;20054;-63
2023/08/23 07:58:15;;;;;;;11.52;9.23;;;;;;;;;;5056056;28;20038;-63
2023/08/23 08:00:42;;;;;;;16.10;9.73;;;;;;;;;;5054976;28;20036;-63
2023/08/23 08:03:09;;;;;;;13.48;9.65;;;;;;;;;;5056776;28;20425;-63
2023/08/23 08:05:35;;;;;;;14.27;9.85;;;;;;;;;;5056252;28;20077;-63
2023/08/23 08:08:02;;;;;;;13.43;9.93;;;;;;;;;;5055659;28;20369;-63
2023/08/23 08:10:28;;;;;;;12.85;9.82;;;;;;;;;;5056614;28;20039;-63
2023/08/23 08:12:54;;;;;;;14.40;8.75;;;;;;;;;;5055293;28;20040;-63
2023/08/23 08:15:20;;;;;;;11.25;8.25;;;;;;;;;;5054622;28;20029;-63
2023/08/23 08:17:50;;;;;;;13.32;9.82;;;;;;;;;;5056103;28;20034;-63
2023/08/23 08:20:17;;;;;;;11.98;8.50;;;;;;;;;;5060485;28;20039;-63
2023/08/23 08:22:43;;;;;;;14.13;9.20;;;;;;;;;;5056420;28;20032;-63
2023/08/23 08:25:09;;;;;;;12.07;9.48;;;;;;;;;;5061545;28;20037;-63
2023/08/23 08:27:35;;;;;;;14.68;8.52;;;;;;;;;;5059539;28;20028;-63
2023/08/23 08:30:01;;;;;;;14.52;8.55;;;;;;;;;;5061584;28;20032;-63
2023/08/23 08:32:28;;;;;;;13.98;8.55;;;;;;;;;;5061323;28;20121;-63
2023/08/23 08:34:55;;;;;;;14.30;8.82;;;;;;;;;;5060467;28;20036;-63
2023/08/23 08:37:24;;;;;;;12.10;8.98;;;;;;;;;;5060203;28;20444;-63
2023/08/23 08:39:50;;;;;;;12.40;9.18;;;;;;;;;;5060930;28;20165;-63
2023/08/23 08:42:17;;;;;;;13.65;8.90;;;;;;;;;;5060594;28;20079;-63
2023/08/23 08:44:43;;;;;;;11.85;8.75;;;;;;;;;;5059670;28;20032;-63
2023/08/23 08:47:09;;;;;;;13.77;9.25;;;;;;;;;;5060238;28;20169;-63
2023/08/23 08:49:35;;;;;;;14.48;9.32;;;;;;;;;;5060330;28;20034;-63
2023/08/23 08:52:04;;;;;;;12.13;9.07;;;;;;;;;;5058269;28;20032;-63
2023/08/23 08:54:30;;;;;;;13.93;9.18;;;;;;;;;;5060333;28;20106;-63
2023/08/23 08:56:57;;;;;;;14.52;9.40;;;;;;;;;;5059473;28;20031;-63
2023/08/23 08:59:23;;;;;;;11.02;8.65;;;;;;;;;;5060808;28;20040;-63
2023/08/23 09:01:50;;;;;;;14.05;8.95;;;;;;;;;;5060023;28;20128;-63
2023/08/23 09:04:16;;;;;;;11.75;8.88;;;;;;;;;;5060725;28;20421;-63
2023/08/23 09:06:45;;;;;;;11.40;8.80;;;;;;;;;;5060444;28;20048;-63
2023/08/23 09:09:11;;;;;;;12.98;9.55;;;;;;;;;;5060508;28;20024;-63
2023/08/23 09:11:37;;;;;;;12.00;8.43;;;;;;;;;;5059558;28;20081;-63
2023/08/23 09:14:16;;;;;;;10.18;8.20;;;;;;;;;;5060349;28;20028;-63
2023/08/23 09:16:43;;;;;;;12.60;7.63;;;;;;;;;;5060340;28;20127;-63
2023/08/23 09:19:13;;;;;;;11.80;8.60;;;;;;;;;;5059800;28;20516;-63
2023/08/23 09:21:42;;;;;;;12.07;8.25;;;;;;;;;;5057969;28;20036;-63
2023/08/23 09:24:08;;;;;;;10.73;8.38;;;;;;;;;;5058516;28;20041;-63
2023/08/23 09:26:34;;;;;;;13.13;8.23;;;;;;;;;;5060056;28;20032;-63
2023/08/23 09:29:02;;;;;;;12.38;8.35;;;;;;;;;;5057817;28;20028;-63
2023/08/23 09:31:28;;;;;;;12.93;8.70;;;;;;;;;;5058516;28;20024;-63
2023/08/23 09:33:54;;;;;;;11.93;7.85;;;;;;;;;;5059793;28;20046;-63
2023/08/23 09:36:25;;;;;;;13.90;8.82;;;;;;;;;;5059974;28;20044;-63
2023/08/23 09:38:51;;;;;;;12.57;8.77;;;;;;;;;;5059790;28;20101;-63
2023/08/23 09:41:17;;;;;;;13.52;10.02;;;;;;;;;;5058242;28;20028;-63
2023/08/23 09:43:43;;;;;;;15.18;10.05;;;;;;;;;;5060370;28;20024;-63
2023/08/23 09:46:10;;;;;;;19.33;9.45;;;;;;;;;;5059056;28;20092;-63
2023/08/23 09:48:37;;;;;;;12.68;7.90;;;;;;;;;;5060346;28;20036;-63
2023/08/23 09:51:03;;;;;;;13.00;9.07;;;;;;;;;;5057030;28;20024;-63
2023/08/23 09:53:34;;;;;;;11.43;7.60;;;;;;;;;;5057840;28;20085;-63
2023/08/23 09:56:02;;;;;;;12.10;7.75;;;;;;;;;;5057517;28;20122;-63
2023/08/23 09:58:28;;;;;;;11.98;6.97;;;;;;;;;;5059122;28;21843;-63
2023/08/23 10:00:56;;;;;;;11.68;7.43;;;;;;;;;;5059922;28;21808;-63
2023/08/23 10:03:23;;;;;;;11.68;7.80;;;;;;;;;;5056266;28;20032;-63
2023/08/23 10:05:51;;;;;;;14.10;7.60;;;;;;;;;;5058214;28;20664;-63
2023/08/23 10:08:17;;;;;;;13.75;7.30;;;;;;;;;;5059590;28;20031;-63
2023/08/23 10:10:43;;;;;;;12.60;7.50;;;;;;;;;;5057987;28;20032;-63
2023/08/23 10:13:10;;;;;;;11.43;6.93;;;;;;;;;;5058763;28;20692;-63
2023/08/23 10:15:40;;;;;;;11.18;6.65;;;;;;;;;;5058546;28;21051;-63
2023/08/23 10:18:09;;;;;;;15.25;8.43;;;;;;;;;;5057973;28;20043;-63
2023/08/23 10:20:36;;;;;;;10.70;6.65;;;;;;;;;;5059018;28;20124;-63
2023/08/23 10:23:03;;;;;;;12.00;5.22;;;;;;;;;;5059136;28;20089;-63
2023/08/23 10:25:32;;;;;;;7.72;5.03;;;;;;;;;;5058121;28;20032;-63
2023/08/23 10:27:59;;;;;;;9.75;4.15;;;;;;;;;;5058405;28;20028;-63
2023/08/23 10:30:25;;;;;;;8.00;4.60;;;;;;;;;;5058097;28;20030;-63
2023/08/23 10:32:52;;;;;;;9.43;4.85;;;;;;;;;;5057742;28;21533;-63
2023/08/23 10:35:28;;;;;;;8.38;4.80;;;;;;;;;;5057592;28;20040;-63
2023/08/23 10:37:54;;;;;;;9.50;5.00;;;;;;;;;;5057378;28;20111;-63
2023/08/23 10:40:21;;;;;;;8.75;4.90;;;;;;;;;;5056839;28;20894;-63
2023/08/23 10:42:50;;;;;;;8.20;4.32;;;;;;;;;;5058608;28;20081;-63
2023/08/23 10:45:16;;;;;;;8.55;4.57;;;;;;;;;;5056896;28;20682;-62
2023/08/23 10:47:42;;;;;;;8.82;4.72;;;;;;;;;;5056660;28;20044;-63
2023/08/23 10:50:09;;;;;;;10.98;5.68;;;;;;;;;;5057156;28;20032;-63
2023/08/23 10:52:35;;;;;;;8.75;5.00;;;;;;;;;;5057840;28;20031;-63
2023/08/23 10:55:02;;;;;;;7.65;3.95;;;;;;;;;;5057135;28;20036;-63
2023/08/23 10:57:28;;;;;;;8.68;3.55;;;;;;;;;;5057560;28;20032;-63
2023/08/23 10:59:54;;;;;;;7.45;4.05;;;;;;;;;;5057986;28;20112;-63
2023/08/23 11:02:20;;;;;;;8.45;4.10;;;;;;;;;;5057414;28;20036;-63
2023/08/23 11:04:47;;;;;;;8.85;3.97;;;;;;;;;;5058036;28;20031;-63
2023/08/23 11:07:14;;;;;;;8.02;4.07;;;;;;;;;;5057989;28;20167;-63
2023/08/23 11:09:40;;;;;;;10.13;4.32;;;;;;;;;;5057995;28;20024;-63
2023/08/23 11:12:07;;;;;;;7.82;3.50;;;;;;;;;;5057990;28;20535;-63
2023/08/23 11:14:33;;;;;;;10.02;3.53;;;;;;;;;;5057886;28;20113;-63
2023/08/23 11:16:59;;;;;;;11.02;3.67;;;;;;;;;;5059078;28;20032;-63
2023/08/23 11:19:25;;;;;;;10.18;2.88;;;;;;;;;;5057276;28;20119;-63
2023/08/23 11:21:52;;;;;;;6.38;2.38;;;;;;;;;;5058024;28;20107;-63
2023/08/23 11:24:18;;;;;;;7.25;2.90;;;;;;;;;;5058007;28;20044;-63
2023/08/23 11:26:44;;;;;;;8.20;2.50;;;;;;;;;;5056802;28;20486;-63
2023/08/23 11:29:10;;;;;;;8.35;2.60;;;;;;;;;;5058519;28;20821;-63
2023/08/23 11:31:37;;;;;;;10.15;1.90;;;;;;;;;;5056755;28;20033;-63
2023/08/23 11:34:07;;;;;;;6.80;2.58;;;;;;;;;;5056383;28;20097;-62
2023/08/23 11:36:34;;;;;;;7.15;2.65;;;;;;;;;;5058444;28;20058;-63
2023/08/23 11:39:04;;;;;;;8.75;3.05;;;;;;;;;;5058409;28;20075;-63
2023/08/23 11:41:34;;;;;;;9.15;2.28;;;;;;;;;;5054942;28;20066;-63
2023/08/23 11:44:09;;;;;;;6.40;2.45;;;;;;;;;;5058136;28;20376;-62
2023/08/23 11:46:38;;;;;;;9.10;2.72;;;;;;;;;;5058513;28;20094;-63
2023/08/23 11:49:07;;;;;;;6.80;2.40;;;;;;;;;;5056042;28;20510;-62
2023/08/23 11:51:44;;;;;;;9.23;3.08;;;;;;;;;;5054686;28;20411;-63
2023/08/23 11:54:11;;;;;;;8.70;3.10;;;;;;;;;;5058333;28;20032;-63
2023/08/23 11:56:43;;;;;;;7.15;2.90;;;;;;;;;;5057655;28;20043;-63
2023/08/23 11:59:09;;;;;;;6.30;2.50;;;;;;;;;;5058332;28;20028;-62
2023/08/23 12:01:35;;;;;;;8.35;2.83;;;;;;;;;;5056694;28;20401;-62
2023/08/23 12:04:02;;;;;;;10.98;2.40;;;;;;;;;;5058348;28;20024;-63
2023/08/23 12:06:29;;;;;;;7.03;2.00;;;;;;;;;;5056330;28;20063;-62
2023/08/23 12:08:55;;;;;;;6.32;2.10;;;;;;;;;;5056485;28;20016;-63
2023/08/23 12:11:21;;;;;;;8.50;1.92;;;;;;;;;;5059273;28;20021;-63
2023/08/23 12:13:47;;;;;;;6.55;1.42;;;;;;;;;;5057594;28;20039;-63
2023/08/23 12:16:14;;;;;;;7.30;2.10;;;;;;;;;;5058273;28;20040;-63
2023/08/23 12:18:41;;;;;;;8.30;1.67;;;;;;;;;;5059250;28;20036;-63
2023/08/23 12:21:07;;;;;;;5.10;1.17;;;;;;;;;;5056407;28;20032;-63
2023/08/23 12:23:33;;;;;;;7.30;1.60;;;;;;;;;;5057020;28;20036;-63
2023/08/23 12:25:59;;;;;;;3.58;1.00;;;;;;;;;;5056674;28;20114;-63
2023/08/23 12:28:25;;;;;;;5.15;1.05;;;;;;;;;;5057014;28;20036;-63
2023/08/23 12:30:52;;;;;;;5.60;1.10;;;;;;;;;;5057474;28;20029;-63
2023/08/23 12:33:18;;;;;;;3.80;1.10;;;;;;;;;;5055719;28;20032;-63
2023/08/23 12:35:44;;;;;;;4.35;1.30;;;;;;;;;;5054436;28;20028;-62
2023/08/23 12:38:10;;;;;;;3.00;1.00;;;;;;;;;;5054711;28;20602;-63
2023/08/23 12:40:37;;;;;;;5.47;1.50;;;;;;;;;;5055732;28;20040;-63
2023/08/23 12:43:03;;;;;;;6.03;1.48;;;;;;;;;;5056596;28;20123;-63
2023/08/23 12:45:29;;;;;;;5.97;1.50;;;;;;;;;;5057540;28;20044;-63
2023/08/23 12:47:55;;;;;;;5.72;1.65;;;;;;;;;;5057049;28;20608;-62
2023/08/23 12:50:21;;;;;;;5.65;1.65;;;;;;;;;;5055919;28;21720;-63
2023/08/23 12:52:47;;;;;;;4.07;1.50;;;;;;;;;;5056092;28;20977;-63
2023/08/23 12:55:13;;;;;;;8.20;1.73;;;;;;;;;;5054655;28;20444;-62
2023/08/23 12:57:39;;;;;;;5.07;1.55;;;;;;;;;;5056009;28;20069;-62
2023/08/23 13:00:07;;;;;;;6.90;1.88;;;;;;;;;;5055933;28;20166;-63
2023/08/23 13:02:33;;;;;;;8.27;1.77;;;;;;;;;;5056389;28;20032;-63
2023/08/23 13:04:59;;;;;;;5.03;1.50;;;;;;;;;;5058306;28;20028;-62
2023/08/23 13:07:25;;;;;;;5.97;1.17;;;;;;;;;;5059230;28;20962;-63
2023/08/23 13:09:51;;;;;;;4.97;1.23;;;;;;;;;;5059778;28;20739;-63
2023/08/23 13:12:17;;;;;;;4.70;1.35;;;;;;;;;;5060558;28;20053;-63
2023/08/23 13:14:43;;;;;;;4.80;1.38;;;;;;;;;;5060977;28;20390;-62
2023/08/23 13:17:09;;;;;;;8.55;1.33;;;;;;;;;;5060855;28;20077;-63
2023/08/23 13:19:38;;;;;;;4.82;1.25;;;;;;;;;;5058716;28;20064;-63
2023/08/23 13:22:04;;;;;;;3.45;1.20;;;;;;;;;;5060030;28;20462;-63
2023/08/23 13:24:30;;;;;;;2.65;0.95;;;;;;;;;;5060641;28;20029;-62
2023/08/23 13:26:56;;;;;;;5.65;1.65;;;;;;;;;;5060083;28;20144;-63
2023/08/23 13:29:22;;;;;;;6.63;1.40;;;;;;;;;;5060189;28;20028;-62
2023/08/23 13:31:48;;;;;;;2.47;1.20;;;;;;;;;;5060171;28;20025;-62
2023/08/23 13:34:15;;;;;;;3.83;1.27;;;;;;;;;;5059923;28;20043;-63
2023/08/23 13:36:41;;;;;;;4.85;1.20;;;;;;;;;;5059509;28;20036;-63
2023/08/23 13:39:07;;;;;;;5.07;1.10;;;;;;;;;;5058527;28;20064;-63
2023/08/23 13:41:33;;;;;;;2.42;1.00;;;;;;;;;;5058510;28;20032;-63
2023/08/23 13:44:00;;;;;;;3.65;1.17;;;;;;;;;;5056269;28;20058;-63
2023/08/23 13:46:26;;;;;;;3.50;1.20;;;;;;;;;;5058298;28;20039;-63
2023/08/23 13:48:52;;;;;;;4.22;1.10;;;;;;;;;;5059802;28;20044;-63
2023/08/23 13:51:18;;;;;;;6.95;1.30;;;;;;;;;;5058105;28;20048;-63
2023/08/23 13:53:45;;;;;;;3.92;1.30;;;;;;;;;;5058505;28;20033;-63
2023/08/23 13:56:11;;;;;;;6.82;1.35;;;;;;;;;;5060809;28;20035;-62
2023/08/23 13:58:37;;;;;;;5.00;1.77;;;;;;;;;;5059456;28;20081;-62
2023/08/23 14:01:03;;;;;;;5.15;1.42;;;;;;;;;;5056724;28;20208;-62
2023/08/23 14:03:32;;;;;;;4.78;1.25;;;;;;;;;;5056858;28;20059;-63
2023/08/23 14:05:59;;;;;;;5.85;1.40;;;;;;;;;;5057112;28;20984;-63
2023/08/23 14:08:25;;;;;;;5.13;1.40;;;;;;;;;;5056988;28;20036;-63
2023/08/23 14:10:52;;;;;;;4.70;1.23;;;;;;;;;;5058586;28;20024;-63
2023/08/23 14:13:18;;;;;;;3.38;1.20;;;;;;;;;;5058400;28;20056;-63
2023/08/23 14:15:44;;;;;;;5.32;1.38;;;;;;;;;;5058433;28;20440;-63
2023/08/23 14:18:13;;;;;;;4.05;1.55;;;;;;;;;;5060563;28;20127;-66
2023/08/23 14:20:39;;;;;;;5.13;1.52;;;;;;;;;;5058222;28;20089;-67
2023/08/23 14:23:06;;;;;;;4.35;1.50;;;;;;;;;;5058486;28;20032;-66
2023/08/23 14:25:32;;;;;;;3.67;1.10;;;;;;;;;;5058819;28;20486;-67
2023/08/23 14:27:58;;;;;;;4.70;1.42;;;;;;;;;;5058253;28;20028;-67
2023/08/23 14:30:28;;;;;;;5.43;2.45;;;;;;;;;;5059677;28;20029;-66